Impacts TAF Board
For situational awareness. Not to be used for flight planning purposes.
IDs:

KLGA - New York/La Guardia, NY, US

Issued at 1122 UTC 23 Mar 2019
Updated at 1256 UTC 23 Mar 2019
Potential Impact None Slight Moderate High
Time<<24/01Z 24/02Z 24/03Z 24/04Z 24/05Z 24/06Z 24/07Z 24/08Z 24/09Z 24/10Z 24/11Z 24/12Z 24/13Z>>
Type PRVL PRVL PRVL PRVL PRVL PRVL PRVL PRVL PRVL PRVL PRVL PRVL PRVL
VIS >6 >6 >6 >6 >6 >6 >6 >6 >6 >6 >6 >6 >6
CIG -- -- -- -- -- -- -- -- -- -- -- -- --
Cover SKC SKC SKC SKC SKC SKC SKC SKC SKC SKC SKC SKC SKC
FltCat VFR VFR VFR VFR VFR VFR VFR VFR VFR VFR VFR VFR VFR
WX -- -- -- -- -- -- -- -- -- -- -- -- --
WDir 310 310 310 300 300 300 300 300 300 300 280 280 280
WSpd 12 12 12 11 11 11 11 11 11 11 9 9 9
WGst 20 20 20 -- -- -- -- -- -- -- -- -- --
Raw TAF
KLGA 231122Z 2312/2418 30021G31KT P6SM SCT040 SCT090
  FM231700 31019G28KT P6SM FEW040
  FM232200 31016G25KT P6SM SKC
  FM240100 31012G20KT P6SM SKC
  FM240400 30011KT P6SM SKC
  FM241100 28009KT P6SM SKC
  FM241700 25010KT P6SM SCT200


METAR Board
Radar Display
Forecast Discussion
For situational awareness. Not to be used for flight planning purposes.